Portada
METAR-TAF:

METAR-TAF

Aeroports :

Avinyó, França

latitud: 43-54-26N, longitud: 004-54-07E, altitud: 38 m

Observació

L'informe es va fer fa 27 minuts, a les 21:00 UTC
Vent 15 kt del Nord/Nord-Oest
Temperatura 22°C
Humitat 41%
Pressió 1017 hPa
Visibilitat 10 km o més
sense núvols per sota de 1500 mi sense presència de cumulonimbus.

METAR: LFMV 232100Z AUTO 34015KT CAVOK 22/08 Q1017

Hora: 23:27 (21:27 UTC)

Pronòstic

L'informe es va fer fa 7 hores i 27 minuts, a les 14:00 UTC
Pronòstic vàlid del 23 a les 15 UTC al 24 a les 15 UTC
Vent 10 kt del Nord/Nord-Oest
Visibilitat 10 km o més
sense núvols per sota de 1500 mi sense presència de cumulonimbus.
Temporalment
l' 23 a les 20 UTC al 24 a les 02 UTC
Vent 15 kt del Nord amb ràfegues de 25 kt

TAF: LFMV 231400Z 2315/2415 33010KT CAVOK TEMPO 2320/2402 35015G25KT

Observacions i pronòstics meteorològics de més de 4000 aeroports (METAR i TAF).

Les estacions disponibles són els punts grocs i vermells al mapa.

Posi el ratolí al punt desitjat per veure el nom de l'estació.

Feu clic per veure les observacions i els pronòstics meteorològics.

Per canviar el mapa: feu clic els botons verds amb una creu de color negre per apropar; al botó verd amb un guió per allunyar la imatge; o en les fletxes verdes per a mapes adjacents.


METAR-TAF: